Tawakoni's Hourly Summary for Sunday, May 13, 2018
Hour Temp
(f)
RH
(%)
Solar Rad.
(MJ/m2)
Rainfall
(in)
Wind
(mph)
5/13/2018 12:00 AM 74 73 0 0 4.95
5/13/2018 1:00 AM 74 74 0 0 6.05
5/13/2018 2:00 AM 73 74 0 0 6.35
5/13/2018 3:00 AM 72 78 0 0 5.87
5/13/2018 4:00 AM 71 83 0 0 5.3
5/13/2018 5:00 AM 70 87 0 0 4.68
5/13/2018 6:00 AM 70 90 0 0 5.07
5/13/2018 7:00 AM 69 92 0.02 0 3.97
5/13/2018 8:00 AM 70 90 0.24 0 5.04
5/13/2018 9:00 AM 72 81 0.72 0 6.69
5/13/2018 10:00 AM 74 73 0.9 0 7.57
5/13/2018 11:00 AM 76 66 1.45 0 6.64
5/13/2018 12:00 PM 78 62 1.98 0 7.92
5/13/2018 1:00 PM 81 55 2.51 0 8.27
5/13/2018 2:00 PM 82 52 2.52 0 8.92
5/13/2018 3:00 PM 84 47 2.99 0 8.47
5/13/2018 4:00 PM 85 46 2.73 0 8.3
5/13/2018 5:00 PM 86 43 2.28 0 7.87
5/13/2018 6:00 PM 86 45 1.67 0 7.4
5/13/2018 7:00 PM 85 47 0.93 0 6
5/13/2018 8:00 PM 82 51 0.32 0 3.35
5/13/2018 9:00 PM 77 63 0.01 0 2.13
5/13/2018 10:00 PM 76 69 0 0 3.36
5/13/2018 11:00 PM 75 69 0 0 3.56
Data Summary 76 67 21.27 0.00 5.99